createdAt,value
2018-05-16T00:00:30.012Z,87.50
2018-05-16T00:02:57.496Z,87.40
2018-05-16T00:05:25.749Z,87.40
2018-05-16T00:07:54.038Z,88.30
2018-05-16T00:10:21.525Z,87.50
2018-05-16T00:12:49.019Z,87.20
2018-05-16T00:15:16.529Z,88.30
2018-05-16T00:17:44.781Z,88.20
2018-05-16T00:20:12.269Z,88.20
2018-05-16T00:22:40.554Z,88.20
2018-05-16T00:25:08.049Z,88.20
2018-05-16T00:27:35.538Z,88.30
2018-05-16T00:30:03.083Z,88.60
2018-05-16T00:32:30.573Z,90.10
2018-05-16T00:34:58.834Z,89.50
2018-05-16T00:37:26.361Z,89.50
2018-05-16T00:39:53.847Z,89.90
2018-05-16T00:42:21.350Z,89.50
2018-05-16T00:44:48.871Z,90.00
2018-05-16T00:47:17.148Z,90.30
2018-05-16T00:49:45.429Z,89.80
2018-05-16T00:52:13.686Z,89.80
2018-05-16T00:54:41.197Z,89.70
2018-05-16T00:57:08.713Z,89.40
2018-05-16T00:59:36.205Z,89.20
2018-05-16T01:02:03.711Z,89.40
2018-05-16T01:04:31.237Z,89.50
2018-05-16T01:06:58.736Z,89.40
2018-05-16T01:09:26.222Z,89.00
2018-05-16T01:11:54.501Z,89.50
2018-05-16T01:14:22.765Z,90.10
2018-05-16T01:16:51.061Z,89.70
2018-05-16T01:19:18.556Z,89.70
2018-05-16T01:21:46.041Z,89.70
2018-05-16T01:24:13.566Z,90.00
2018-05-16T01:26:41.063Z,90.00
2018-05-16T01:29:08.582Z,89.70
2018-05-16T01:31:36.078Z,89.60
2018-05-16T01:34:03.592Z,90.00
2018-05-16T01:36:31.093Z,90.30
2018-05-16T01:38:58.599Z,90.10
2018-05-16T01:41:26.111Z,89.70
2018-05-16T01:43:53.708Z,90.00
2018-05-16T01:46:21.210Z,89.70
2018-05-16T01:49:00.619Z,90.00
2018-05-16T01:51:28.111Z,89.40
2018-05-16T01:53:57.135Z,90.00
2018-05-16T01:56:25.384Z,89.70
2018-05-16T01:58:52.903Z,89.60
2018-05-16T02:01:20.401Z,89.60
2018-05-16T02:03:47.898Z,89.40
2018-05-16T02:06:15.458Z,89.90
2018-05-16T02:08:42.959Z,89.70
2018-05-16T02:11:10.444Z,89.80
2018-05-16T02:13:37.966Z,89.30
2018-05-16T02:16:05.453Z,89.60
2018-05-16T02:18:32.938Z,89.30
2018-05-16T02:21:01.207Z,90.00
2018-05-16T02:23:29.470Z,89.70
2018-05-16T02:25:56.975Z,89.80
2018-05-16T02:28:24.471Z,89.90
2018-05-16T02:30:51.973Z,89.70
2018-05-16T02:33:19.480Z,89.80
2018-05-16T02:35:46.985Z,89.80
2018-05-16T02:38:14.503Z,89.90
2018-05-16T02:40:41.991Z,90.10
2018-05-16T02:43:10.281Z,90.10
2018-05-16T02:45:37.773Z,90.10
2018-05-16T02:48:05.283Z,89.80
2018-05-16T02:50:33.532Z,89.60
2018-05-16T02:53:01.033Z,89.60
2018-05-16T02:55:28.529Z,89.60
2018-05-16T02:57:56.279Z,90.00
2018-05-16T03:00:23.777Z,89.70
2018-05-16T03:02:51.280Z,89.50
2018-05-16T03:05:18.799Z,89.80
2018-05-16T03:07:46.307Z,89.60
2018-05-16T03:10:13.827Z,90.60
2018-05-16T03:12:42.144Z,90.60
2018-05-16T03:15:09.665Z,90.60
2018-05-16T03:17:37.920Z,89.50
2018-05-16T03:20:05.461Z,89.50
2018-05-16T03:22:32.929Z,89.40
2018-05-16T03:25:00.426Z,89.40
2018-05-16T03:27:27.929Z,89.50
2018-05-16T03:29:55.810Z,89.70
2018-05-16T03:32:23.316Z,89.70
2018-05-16T03:34:50.821Z,89.50
2018-05-16T03:37:18.322Z,89.50
2018-05-16T03:39:45.822Z,90.00
2018-05-16T03:42:13.322Z,88.40
2018-05-16T03:44:41.588Z,89.70
2018-05-16T03:47:09.110Z,89.00
2018-05-16T03:49:36.606Z,88.80
2018-05-16T03:52:04.115Z,88.40
2018-05-16T03:54:31.612Z,88.30
2018-05-16T03:56:59.119Z,88.30
2018-05-16T03:59:38.474Z,88.40
2018-05-16T04:05:10.502Z,88.10
2018-05-16T04:07:37.998Z,87.90
2018-05-16T04:10:05.503Z,87.90
2018-05-16T04:12:33.011Z,87.40
2018-05-16T04:15:00.523Z,88.30
2018-05-16T04:17:28.039Z,87.50
2018-05-16T04:19:55.525Z,89.10
2018-05-16T04:22:23.041Z,88.70
2018-05-16T04:24:50.537Z,88.60
2018-05-16T04:27:18.071Z,88.30
2018-05-16T04:29:45.561Z,88.80
2018-05-16T04:32:13.079Z,89.40
2018-05-16T04:34:40.570Z,89.90
2018-05-16T04:37:08.089Z,89.80
2018-05-16T04:39:35.572Z,90.00
2018-05-16T04:42:03.080Z,90.00
2018-05-16T04:44:31.361Z,89.80
2018-05-16T04:46:59.630Z,89.40
2018-05-16T04:49:27.915Z,88.90
2018-05-16T04:51:56.204Z,90.00
2018-05-16T04:54:24.483Z,90.10
2018-05-16T04:56:52.114Z,90.10
2018-05-16T04:59:19.631Z,89.90
2018-05-16T05:01:47.121Z,90.00
2018-05-16T05:04:14.629Z,90.20
2018-05-16T05:06:42.123Z,90.30
2018-05-16T05:09:09.631Z,90.10
2018-05-16T05:11:37.144Z,90.60
2018-05-16T05:14:04.645Z,90.80
2018-05-16T05:16:32.913Z,90.90
2018-05-16T05:19:01.161Z,90.70
2018-05-16T05:21:28.675Z,90.70
2018-05-16T05:23:56.200Z,91.00
2018-05-16T05:26:23.711Z,90.80
2018-05-16T05:28:51.239Z,90.90
2018-05-16T05:31:18.739Z,90.70
2018-05-16T05:33:46.250Z,90.80
2018-05-16T05:36:14.523Z,91.10
2018-05-16T05:38:42.802Z,91.00
2018-05-16T05:41:11.070Z,91.20
2018-05-16T05:43:39.337Z,91.00
2018-05-16T05:46:07.611Z,91.30
2018-05-16T05:48:35.892Z,91.30
2018-05-16T05:51:04.150Z,91.50
2018-05-16T05:53:31.680Z,91.40
2018-05-16T05:55:59.175Z,91.20
2018-05-16T05:58:27.442Z,91.50
2018-05-16T06:00:54.960Z,91.20
2018-05-16T06:03:22.468Z,91.40
2018-05-16T06:05:49.982Z,91.40
2018-05-16T06:08:17.479Z,91.60
2018-05-16T06:10:44.999Z,91.80
2018-05-16T06:13:12.492Z,91.90
2018-05-16T06:15:40.779Z,91.80
2018-05-16T06:18:09.048Z,92.10
2018-05-16T06:20:36.556Z,91.70
2018-05-16T06:23:04.073Z,91.80
2018-05-16T06:25:32.367Z,92.10
2018-05-16T06:28:00.632Z,91.70
2018-05-16T06:30:28.898Z,91.60
2018-05-16T06:32:56.501Z,91.90
2018-05-16T06:35:24.017Z,91.40
2018-05-16T06:37:51.539Z,91.40
2018-05-16T06:40:19.031Z,91.50
2018-05-16T06:42:46.538Z,91.50
2018-05-16T06:45:14.029Z,91.50
2018-05-16T06:47:41.554Z,91.50
2018-05-16T06:50:09.106Z,91.10
2018-05-16T06:52:36.607Z,91.20
2018-05-16T06:55:04.169Z,91.10
2018-05-16T06:57:31.669Z,91.20
2018-05-16T06:59:59.969Z,91.10
2018-05-16T07:02:27.482Z,91.10
2018-05-16T07:04:55.771Z,91.10
2018-05-16T07:07:24.071Z,91.20
2018-05-16T07:09:51.592Z,91.20
2018-05-16T07:12:19.905Z,90.90
2018-05-16T07:14:47.431Z,90.60
2018-05-16T07:17:16.049Z,90.80
2018-05-16T07:19:46.363Z,90.50
2018-05-16T07:22:13.930Z,90.40
2018-05-16T07:24:43.336Z,90.40
2018-05-16T07:27:13.765Z,90.40
2018-05-16T07:29:41.326Z,90.20
2018-05-16T07:32:08.883Z,90.30
2018-05-16T07:34:36.410Z,90.30
2018-05-16T07:37:05.787Z,90.10
2018-05-16T07:39:33.848Z,90.10
2018-05-16T07:42:01.769Z,90.10
2018-05-16T07:44:30.323Z,90.00
2018-05-16T07:46:58.962Z,89.90
2018-05-16T07:49:26.537Z,90.00
2018-05-16T07:51:54.102Z,90.00
2018-05-16T07:54:25.649Z,90.10
2018-05-16T07:56:58.028Z,90.10
2018-05-16T07:59:25.638Z,90.00
2018-05-16T08:01:53.248Z,90.10
2018-05-16T08:04:22.485Z,90.20
2018-05-16T08:06:50.817Z,90.00
2018-05-16T08:09:18.315Z,90.00
2018-05-16T08:11:46.632Z,90.60
2018-05-16T08:14:14.755Z,90.60
2018-05-16T08:16:42.289Z,90.40
2018-05-16T08:19:09.814Z,90.60
2018-05-16T08:21:37.477Z,90.40
2018-05-16T08:24:05.037Z,90.60
2018-05-16T08:26:32.637Z,90.10
2018-05-16T08:29:00.228Z,90.30
2018-05-16T08:31:28.517Z,90.10
2018-05-16T08:33:56.876Z,90.10
2018-05-16T08:36:24.369Z,90.10
2018-05-16T08:38:52.598Z,90.30
2018-05-16T08:41:20.188Z,89.70
2018-05-16T08:43:48.826Z,90.00
2018-05-16T08:46:16.403Z,90.00
2018-05-16T08:48:45.500Z,90.10
2018-05-16T08:51:13.031Z,89.80
2018-05-16T08:53:41.237Z,89.90
2018-05-16T08:56:08.838Z,89.90
2018-05-16T08:58:36.335Z,89.90
2018-05-16T09:03:41.902Z,89.30
2018-05-16T09:06:13.080Z,89.10
2018-05-16T09:08:40.676Z,88.50
2018-05-16T09:11:08.216Z,88.90
2018-05-16T09:13:35.837Z,89.10
2018-05-16T09:16:04.406Z,86.60
2018-05-16T09:18:41.053Z,86.60
2018-05-16T09:21:16.227Z,85.70
2018-05-16T09:23:50.868Z,87.50
2018-05-16T09:26:38.963Z,86.90
2018-05-16T09:29:07.033Z,87.90
2018-05-16T09:31:37.312Z,88.00
2018-05-16T09:34:05.691Z,87.80
2018-05-16T09:36:34.672Z,87.90
2018-05-16T09:39:12.816Z,87.00
2018-05-16T09:41:40.365Z,86.70
2018-05-16T09:44:10.495Z,86.90
2018-05-16T09:46:38.117Z,86.80
2018-05-16T09:49:11.351Z,87.50
2018-05-16T09:51:39.750Z,87.40
2018-05-16T09:54:07.353Z,87.60
2018-05-16T09:56:34.875Z,87.50
2018-05-16T09:59:02.386Z,87.40
2018-05-16T10:01:30.677Z,87.50
2018-05-16T10:03:58.179Z,87.50
2018-05-16T10:06:25.700Z,87.20
2018-05-16T10:08:53.360Z,87.10
2018-05-16T10:11:20.893Z,88.40
2018-05-16T10:13:49.897Z,86.90
2018-05-16T10:16:18.253Z,87.20
2018-05-16T10:18:45.853Z,87.20
2018-05-16T10:21:13.412Z,88.70
2018-05-16T10:23:41.063Z,88.50
2018-05-16T10:26:17.445Z,87.70
2018-05-16T10:28:45.058Z,88.10
2018-05-16T10:31:20.056Z,88.00
2018-05-16T10:33:48.671Z,88.40
2018-05-16T10:36:16.370Z,87.50
2018-05-16T10:38:43.941Z,88.10
2018-05-16T10:41:11.452Z,87.60
2018-05-16T10:43:39.673Z,88.60
2018-05-16T10:46:11.046Z,88.50
2018-05-16T10:48:40.070Z,87.40
2018-05-16T10:51:15.160Z,88.20
2018-05-16T10:54:07.598Z,87.50
2018-05-16T10:56:39.459Z,87.00
2018-05-16T10:59:19.993Z,88.20
2018-05-16T11:10:19.795Z,88.30
2018-05-16T11:12:52.157Z,87.60
2018-05-16T11:15:28.392Z,87.00
2018-05-16T11:18:03.155Z,87.80
2018-05-16T11:20:30.710Z,87.70
2018-05-16T11:22:58.229Z,88.10
2018-05-16T11:25:25.984Z,87.60
2018-05-16T11:27:53.524Z,88.00
2018-05-16T11:30:21.098Z,87.40
2018-05-16T11:32:52.222Z,87.20
2018-05-16T11:35:19.906Z,87.20
2018-05-16T11:37:47.463Z,86.30
2018-05-16T11:40:22.354Z,86.90
2018-05-16T11:42:49.890Z,87.80
2018-05-16T11:45:18.220Z,88.00
2018-05-16T11:47:47.276Z,88.10
2018-05-16T11:50:17.381Z,88.40
2018-05-16T11:52:44.935Z,87.40
2018-05-16T11:55:13.328Z,87.50
2018-05-16T11:57:40.817Z,87.50
2018-05-16T12:00:11.573Z,87.60
2018-05-16T12:02:39.186Z,87.10
2018-05-16T12:05:08.254Z,88.60
2018-05-16T12:07:36.567Z,88.00
2018-05-16T12:10:04.155Z,87.90
2018-05-16T12:12:35.785Z,87.40
2018-05-16T12:15:04.270Z,87.40
2018-05-16T12:17:32.689Z,87.50
2018-05-16T12:20:03.881Z,87.20
2018-05-16T12:22:38.047Z,87.80
2018-05-16T12:25:08.451Z,87.70
2018-05-16T12:27:36.270Z,87.70
2018-05-16T12:30:04.777Z,87.50
2018-05-16T12:32:32.958Z,87.80
2018-05-16T12:35:00.547Z,88.50
2018-05-16T12:37:28.845Z,87.10
2018-05-16T12:39:57.328Z,87.80
2018-05-16T12:42:25.690Z,88.40
2018-05-16T12:44:55.039Z,88.40
2018-05-16T12:47:22.594Z,88.10
2018-05-16T12:49:50.167Z,89.50
2018-05-16T12:52:17.762Z,89.00
2018-05-16T12:54:45.353Z,88.90
2018-05-16T12:57:13.722Z,88.00
2018-05-16T12:59:42.029Z,88.70
2018-05-16T13:02:09.642Z,88.00
2018-05-16T13:04:37.165Z,87.10
2018-05-16T13:07:04.764Z,87.30
2018-05-16T13:09:32.326Z,87.30
2018-05-16T13:11:59.961Z,87.70
2018-05-16T13:14:27.529Z,87.20
2018-05-16T13:16:55.036Z,86.90
2018-05-16T13:19:23.326Z,86.90
2018-05-16T13:21:50.850Z,86.80
2018-05-16T13:24:19.172Z,87.70
2018-05-16T13:26:46.771Z,86.90
2018-05-16T13:29:15.045Z,88.00
2018-05-16T13:31:42.573Z,87.90
2018-05-16T13:34:10.141Z,87.80
2018-05-16T13:36:37.702Z,87.60
2018-05-16T13:39:18.236Z,87.60
2018-05-16T13:41:45.766Z,88.20
2018-05-16T13:44:14.111Z,89.40
2018-05-16T13:46:41.615Z,88.60
2018-05-16T13:49:09.897Z,87.50
2018-05-16T13:51:38.218Z,87.60
2018-05-16T13:54:05.742Z,87.60
2018-05-16T13:56:33.941Z,88.00
2018-05-16T13:59:01.547Z,88.20
2018-05-16T14:01:29.835Z,87.00
2018-05-16T14:03:58.109Z,87.10
2018-05-16T14:06:26.474Z,88.10
2018-05-16T14:08:53.994Z,88.10
2018-05-16T14:11:21.574Z,88.20
2018-05-16T14:13:49.139Z,88.80
2018-05-16T14:16:16.638Z,87.00
2018-05-16T14:18:49.434Z,88.00
2018-05-16T14:21:18.522Z,87.20
2018-05-16T14:23:46.063Z,87.30
2018-05-16T14:26:13.549Z,87.80
2018-05-16T14:28:41.302Z,88.30
2018-05-16T14:31:08.837Z,88.30
2018-05-16T14:33:41.112Z,88.00
2018-05-16T14:36:09.864Z,87.70
2018-05-16T14:38:38.883Z,87.50
2018-05-16T14:41:07.154Z,87.70
2018-05-16T14:43:34.705Z,87.60
2018-05-16T14:46:02.439Z,87.80
2018-05-16T14:48:34.584Z,87.80
2018-05-16T14:51:03.109Z,87.30
2018-05-16T14:53:30.623Z,87.10
2018-05-16T14:55:58.722Z,86.90
2018-05-16T14:58:26.988Z,86.80
2018-05-16T15:00:55.196Z,87.00
2018-05-16T15:03:22.893Z,86.90
2018-05-16T15:05:53.211Z,86.80
2018-05-16T15:08:21.555Z,86.00
2018-05-16T15:10:49.077Z,86.00
2018-05-16T15:13:18.112Z,86.40
2018-05-16T15:15:45.653Z,86.20
2018-05-16T15:18:13.206Z,86.50
2018-05-16T15:20:41.264Z,87.40
2018-05-16T15:23:08.873Z,87.10
2018-05-16T15:25:42.871Z,86.80
2018-05-16T15:28:11.950Z,86.60
2018-05-16T15:30:41.007Z,86.50
2018-05-16T15:33:08.691Z,86.80
2018-05-16T15:35:38.220Z,87.30
2018-05-16T15:38:08.676Z,87.40
2018-05-16T15:40:37.052Z,87.10
2018-05-16T15:43:05.488Z,86.90
2018-05-16T15:45:33.090Z,86.90
2018-05-16T15:48:01.957Z,88.20
2018-05-16T15:50:29.522Z,87.40
2018-05-16T15:52:58.844Z,87.20
2018-05-16T15:55:27.367Z,87.70
2018-05-16T15:57:54.927Z,87.70
2018-05-16T16:00:22.442Z,87.70
2018-05-16T16:02:50.792Z,89.00
2018-05-16T16:05:18.337Z,88.30
2018-05-16T16:07:45.919Z,88.20
2018-05-16T16:10:13.576Z,88.30
2018-05-16T16:12:44.430Z,88.00
2018-05-16T16:15:17.509Z,87.70
2018-05-16T16:17:45.337Z,87.30
2018-05-16T16:20:21.265Z,87.80
2018-05-16T16:22:51.902Z,87.90
2018-05-16T16:25:20.341Z,87.90
2018-05-16T16:27:47.936Z,88.30
2018-05-16T16:30:16.539Z,88.30
2018-05-16T16:32:45.033Z,88.20
2018-05-16T16:35:13.877Z,88.30
2018-05-16T16:37:42.241Z,89.50
2018-05-16T16:40:10.054Z,89.20
2018-05-16T16:42:40.280Z,90.10
2018-05-16T16:45:08.485Z,89.60
2018-05-16T16:47:36.205Z,89.10
2018-05-16T16:50:08.060Z,88.80
2018-05-16T16:52:39.116Z,88.90
2018-05-16T16:55:13.331Z,88.70
2018-05-16T16:57:42.934Z,88.80
2018-05-16T17:00:10.553Z,88.80
2018-05-16T17:02:41.553Z,88.70
2018-05-16T17:05:09.115Z,89.10
2018-05-16T17:07:36.700Z,89.10
2018-05-16T17:10:13.361Z,89.40
2018-05-16T17:12:40.956Z,89.90
2018-05-16T17:15:08.457Z,89.50
2018-05-16T17:17:36.164Z,89.20
2018-05-16T17:20:03.704Z,89.40
2018-05-16T17:22:31.292Z,89.30
2018-05-16T17:24:59.015Z,89.20
2018-05-16T17:27:26.780Z,89.40
2018-05-16T17:29:54.681Z,89.50
2018-05-16T17:32:22.221Z,89.30
2018-05-16T17:34:49.837Z,89.50
2018-05-16T17:37:17.501Z,89.60
2018-05-16T17:39:45.013Z,89.30
2018-05-16T17:42:12.531Z,88.80
2018-05-16T17:44:40.091Z,89.10
2018-05-16T17:47:07.774Z,89.10
2018-05-16T17:49:35.262Z,90.00
2018-05-16T17:52:02.783Z,90.00
2018-05-16T17:54:30.445Z,89.70
2018-05-16T17:56:58.013Z,89.50
2018-05-16T17:59:25.715Z,89.50
2018-05-16T18:01:53.603Z,89.80
2018-05-16T18:04:21.170Z,89.80
2018-05-16T18:06:48.754Z,89.60
2018-05-16T18:09:16.398Z,89.30
2018-05-16T18:11:44.088Z,89.00
2018-05-16T18:14:24.250Z,88.80
2018-05-16T18:17:02.693Z,89.10
2018-05-16T18:19:30.145Z,89.80
2018-05-16T18:21:57.707Z,88.90
2018-05-16T18:24:26.000Z,90.00
2018-05-16T18:26:54.286Z,88.80
2018-05-16T18:29:22.010Z,88.80
2018-05-16T18:31:51.300Z,88.70
2018-05-16T18:34:18.837Z,88.60
2018-05-16T18:36:46.540Z,88.60
2018-05-16T18:39:14.356Z,88.60
2018-05-16T18:41:42.021Z,88.60
2018-05-16T18:44:09.779Z,88.40
2018-05-16T18:46:37.284Z,88.70
2018-05-16T18:49:05.004Z,89.00
2018-05-16T18:51:32.547Z,90.10
2018-05-16T18:54:00.325Z,89.50
2018-05-16T18:56:27.989Z,88.90
2018-05-16T18:58:55.646Z,89.00
2018-05-16T19:01:24.027Z,89.00
2018-05-16T19:03:51.901Z,89.00
2018-05-16T19:06:19.423Z,89.70
2018-05-16T19:08:48.325Z,89.10
2018-05-16T19:11:17.901Z,89.60
2018-05-16T19:13:45.819Z,89.50
2018-05-16T19:16:13.690Z,89.40
2018-05-16T19:18:42.606Z,89.50
2018-05-16T19:21:11.054Z,90.00
2018-05-16T19:23:39.024Z,89.60
2018-05-16T19:26:06.788Z,89.50
2018-05-16T19:28:34.551Z,90.10
2018-05-16T19:31:02.315Z,90.00
2018-05-16T19:33:29.845Z,90.60
2018-05-16T19:35:58.458Z,89.90
2018-05-16T19:38:26.148Z,89.80
2018-05-16T19:40:54.225Z,89.90
2018-05-16T19:43:22.918Z,89.70
2018-05-16T19:45:51.391Z,90.00
2018-05-16T19:48:20.043Z,90.20
2018-05-16T19:50:47.735Z,90.00
2018-05-16T19:53:15.808Z,90.40
2018-05-16T19:55:44.360Z,90.50
2018-05-16T19:58:12.943Z,90.50
2018-05-16T20:00:40.707Z,90.30
2018-05-16T20:03:08.638Z,90.30
2018-05-16T20:05:37.264Z,91.00
2018-05-16T20:08:04.819Z,90.70
2018-05-16T20:10:32.302Z,90.70
2018-05-16T20:13:02.474Z,90.50
2018-05-16T20:15:31.247Z,90.20
2018-05-16T20:17:59.794Z,90.30
2018-05-16T20:20:27.633Z,90.20
2018-05-16T20:22:55.194Z,90.40
2018-05-16T20:25:22.873Z,90.80
2018-05-16T20:27:50.488Z,90.70
2018-05-16T20:30:19.102Z,90.30
2018-05-16T20:32:47.013Z,90.30
2018-05-16T20:35:15.559Z,90.60
2018-05-16T20:37:43.307Z,90.60
2018-05-16T20:40:10.792Z,90.60
2018-05-16T20:42:38.720Z,90.40
2018-05-16T20:45:06.504Z,90.40
2018-05-16T20:47:34.166Z,90.60
2018-05-16T20:50:02.646Z,90.50
2018-05-16T20:52:30.515Z,90.50
2018-05-16T20:54:58.123Z,90.40
2018-05-16T20:57:26.553Z,90.50
2018-05-16T20:59:54.095Z,90.50
2018-05-16T21:02:21.775Z,90.70
2018-05-16T21:04:49.316Z,90.50
2018-05-16T21:07:16.968Z,90.60
2018-05-16T21:09:44.761Z,90.50
2018-05-16T21:12:12.414Z,90.50
2018-05-16T21:14:40.904Z,90.50
2018-05-16T21:17:08.670Z,90.60
2018-05-16T21:19:36.210Z,90.80
2018-05-16T21:22:03.892Z,90.80
2018-05-16T21:24:32.369Z,90.60
2018-05-16T21:27:01.470Z,90.70
2018-05-16T21:29:29.333Z,90.40
2018-05-16T21:31:57.200Z,90.60
2018-05-16T21:34:25.759Z,90.60
2018-05-16T21:36:53.649Z,90.60
2018-05-16T21:39:21.414Z,90.70
2018-05-16T21:41:49.138Z,90.50
2018-05-16T21:44:17.588Z,90.50
2018-05-16T21:46:45.335Z,90.40
2018-05-16T21:49:12.954Z,90.70
2018-05-16T21:51:41.259Z,90.90
2018-05-16T21:54:08.761Z,90.90
2018-05-16T21:56:36.336Z,90.80
2018-05-16T21:59:03.803Z,90.70
2018-05-16T22:01:32.067Z,90.90
2018-05-16T22:04:00.333Z,91.10
2018-05-16T22:06:27.819Z,90.80
2018-05-16T22:08:56.111Z,90.70
2018-05-16T22:11:23.607Z,90.70
2018-05-16T22:13:51.108Z,90.70
2018-05-16T22:16:19.380Z,90.80
2018-05-16T22:18:47.644Z,90.70
2018-05-16T22:21:15.154Z,90.70
2018-05-16T22:23:42.637Z,90.30
2018-05-16T22:26:10.128Z,90.50
2018-05-16T22:28:38.392Z,90.60
2018-05-16T22:31:11.654Z,90.50
2018-05-16T22:33:44.984Z,90.50
2018-05-16T22:36:18.069Z,90.40
2018-05-16T22:38:51.233Z,90.40
2018-05-16T22:41:24.446Z,90.50
2018-05-16T22:43:57.280Z,90.60
2018-05-16T22:46:24.783Z,90.60
2018-05-16T22:48:52.260Z,90.90
2018-05-16T22:51:20.513Z,90.90
2018-05-16T22:53:48.027Z,90.90
2018-05-16T22:56:15.506Z,90.80
2018-05-16T22:58:43.004Z,90.80
2018-05-16T23:01:10.499Z,91.00
2018-05-16T23:03:37.995Z,91.00
2018-05-16T23:06:05.489Z,90.90
2018-05-16T23:08:33.733Z,90.90
2018-05-16T23:11:03.521Z,90.90
2018-05-16T23:13:31.086Z,90.90
2018-05-16T23:15:58.620Z,90.80
2018-05-16T23:18:26.102Z,90.70
2018-05-16T23:20:53.631Z,90.60
2018-05-16T23:23:21.126Z,90.90
2018-05-16T23:25:48.668Z,90.80
2018-05-16T23:28:16.153Z,91.00
2018-05-16T23:30:43.647Z,90.90
2018-05-16T23:33:11.908Z,91.10
2018-05-16T23:35:39.394Z,91.00
2018-05-16T23:38:06.906Z,90.90
2018-05-16T23:40:34.400Z,90.80
2018-05-16T23:43:02.679Z,90.90
2018-05-16T23:45:30.178Z,90.90
2018-05-16T23:47:57.689Z,91.20
2018-05-16T23:50:25.944Z,91.60
2018-05-16T23:52:53.443Z,91.60
2018-05-16T23:55:20.985Z,91.60
2018-05-16T23:57:49.246Z,91.40
